San Francisco, California
Traffic Map
Current Weather Conditions
San Francisco, California
Scattered Clouds
Scattered Clouds
79°
Feels Like: 80°
Wind Chill: 79° Ceiling: Unl
Heat Index: 80° Visibility: 10mi
Dew Point: 62° Wind: 16mph
Humidity: 56% Direction: 210° (SSW)
Pressure: 29.83in Gusts: 0mph
Raw Report DataKSFO 182256Z 21014KT 10SM FEW025 SCT030 SCT065 26/17 A2983 RMK AO2 SLP101 T02610167
Traffic Incident Summary
Active as of:
Severity:
Category:
InformationThere was an issue retrieving the traffic information for this location. Please try a different location or try again shortly.
Advertisements
Track Severe Weather on mobile